Time;durP1;ratioP1;P1;durP2;ratioP2;P2;SDS_P1;SDS_P2;PMS_P1;PMS_P2;Temp;Humidity;BMP_temperature;BMP_pressure;BME280_temperature;BME280_humidity;BME280_pressure;Samples;Min_cycle;Max_cycle;Signal;HPM_P1;HPM_P2
2024/01/03 00:00:57;;;;;;;1.53;1.47;;;;;;;;;;6360695;28;20316;-68
2024/01/03 00:04:03;;;;;;;3.23;1.40;;;;;;;;;;6361328;28;20285;-68
2024/01/03 00:07:07;;;;;;;1.10;1.10;;;;;;;;;;6360430;28;20299;-67
2024/01/03 00:10:20;;;;;;;1.50;1.30;;;;;;;;;;6353923;28;20300;-67
2024/01/03 00:13:54;;;;;;;1.10;1.10;;;;;;;;;;6335747;28;20301;-67
2024/01/03 00:17:02;;;;;;;1.27;1.27;;;;;;;;;;6359200;28;20576;-67
2024/01/03 00:20:09;;;;;;;1.37;1.13;;;;;;;;;;6362624;27;20571;-68
2024/01/03 00:23:14;;;;;;;1.00;1.00;;;;;;;;;;6386092;27;20533;-68
2024/01/03 00:26:19;;;;;;;1.20;1.20;;;;;;;;;;6367202;27;20310;-68
2024/01/03 00:29:48;;;;;;;1.10;1.10;;;;;;;;;;6412720;27;20303;-68
2024/01/03 00:32:52;;;;;;;2.40;1.40;;;;;;;;;;6412180;27;20287;-68
2024/01/03 00:36:10;;;;;;;1.20;1.20;;;;;;;;;;6411196;27;20311;-68
2024/01/03 00:39:14;;;;;;;1.33;1.20;;;;;;;;;;6411703;27;20587;-68
2024/01/03 00:42:18;;;;;;;1.10;1.10;;;;;;;;;;6392118;27;20306;-68
2024/01/03 00:45:22;;;;;;;1.20;1.20;;;;;;;;;;6392773;27;20297;-68
2024/01/03 00:48:26;;;;;;;1.10;1.10;;;;;;;;;;6392709;27;20434;-68
2024/01/03 00:51:32;;;;;;;1.23;1.03;;;;;;;;;;6411043;27;20294;-68
2024/01/03 00:54:36;;;;;;;1.03;1.03;;;;;;;;;;6391896;27;20287;-68
2024/01/03 00:57:40;;;;;;;1.30;1.30;;;;;;;;;;6411282;27;20294;-67
2024/01/03 01:00:44;;;;;;;1.20;1.20;;;;;;;;;;6409099;27;20294;-68
2024/01/03 01:03:49;;;;;;;1.20;1.20;;;;;;;;;;6392206;27;20296;-68
2024/01/03 01:06:54;;;;;;;1.30;1.10;;;;;;;;;;6391758;27;20610;-68
2024/01/03 01:09:58;;;;;;;1.30;1.20;;;;;;;;;;6403395;27;20373;-67
2024/01/03 01:13:02;;;;;;;1.30;1.30;;;;;;;;;;6385218;27;20292;-68
2024/01/03 01:16:06;;;;;;;2.00;1.23;;;;;;;;;;6366170;27;20283;-67
2024/01/03 01:19:10;;;;;;;1.10;1.10;;;;;;;;;;6384898;27;20288;-68
2024/01/03 01:22:16;;;;;;;1.10;1.10;;;;;;;;;;6384176;27;20568;-67
2024/01/03 01:25:20;;;;;;;1.30;1.30;;;;;;;;;;6382553;28;20317;-67
2024/01/03 01:28:24;;;;;;;1.90;1.00;;;;;;;;;;6376959;27;20543;-68
2024/01/03 01:31:28;;;;;;;1.00;1.00;;;;;;;;;;6418945;27;20299;-67
2024/01/03 01:34:31;;;;;;;1.20;1.20;;;;;;;;;;6400325;27;20303;-68
2024/01/03 01:37:37;;;;;;;1.70;1.00;;;;;;;;;;6417983;27;20290;-68
2024/01/03 01:40:41;;;;;;;1.10;1.10;;;;;;;;;;6418858;27;20287;-68
2024/01/03 01:43:45;;;;;;;0.90;0.90;;;;;;;;;;6399723;27;20298;-68
2024/01/03 01:46:49;;;;;;;0.97;0.97;;;;;;;;;;6418749;27;20290;-68
2024/01/03 01:49:55;;;;;;;5.00;1.20;;;;;;;;;;6418744;27;20289;-68
2024/01/03 01:53:00;;;;;;;1.33;1.33;;;;;;;;;;6417464;27;20298;-67
2024/01/03 01:56:05;;;;;;;1.53;1.10;;;;;;;;;;6416039;27;20291;-67
2024/01/03 01:59:09;;;;;;;1.17;1.17;;;;;;;;;;6400228;27;20443;-68
2024/01/03 02:02:13;;;;;;;1.20;1.20;;;;;;;;;;6399195;27;20455;-67
2024/01/03 02:05:18;;;;;;;0.90;0.90;;;;;;;;;;6399378;27;20290;-66
2024/01/03 02:08:24;;;;;;;2.70;1.00;;;;;;;;;;6418572;27;20230;-67
2024/01/03 02:11:28;;;;;;;0.90;0.90;;;;;;;;;;6400418;27;20310;-67
2024/01/03 02:14:32;;;;;;;1.17;1.10;;;;;;;;;;6392459;27;20572;-67
2024/01/03 02:17:38;;;;;;;3.50;0.97;;;;;;;;;;6374137;27;20470;-67
2024/01/03 02:20:43;;;;;;;1.10;1.10;;;;;;;;;;6392062;27;20292;-67
2024/01/03 02:23:48;;;;;;;1.23;1.20;;;;;;;;;;6374053;27;20302;-68
2024/01/03 02:26:53;;;;;;;1.13;1.13;;;;;;;;;;6373689;27;20300;-68
2024/01/03 02:29:57;;;;;;;1.00;1.00;;;;;;;;;;6411100;27;20295;-68
2024/01/03 02:33:01;;;;;;;1.10;1.10;;;;;;;;;;6418355;27;20286;-67
2024/01/03 02:36:05;;;;;;;1.07;1.07;;;;;;;;;;6418106;27;20298;-67
2024/01/03 02:39:10;;;;;;;1.43;1.33;;;;;;;;;;6416381;27;20454;-67
2024/01/03 02:42:14;;;;;;;1.13;1.13;;;;;;;;;;6413611;27;20283;-67
2024/01/03 02:45:18;;;;;;;1.10;1.10;;;;;;;;;;6413788;27;20286;-67
2024/01/03 02:48:22;;;;;;;6.27;1.50;;;;;;;;;;6414364;27;20295;-67
2024/01/03 02:51:26;;;;;;;1.10;1.10;;;;;;;;;;6413381;27;20322;-67
2024/01/03 02:54:32;;;;;;;1.00;1.00;;;;;;;;;;6413497;27;20290;-67
2024/01/03 02:57:35;;;;;;;1.20;1.20;;;;;;;;;;6414089;27;20294;-67
2024/01/03 03:00:40;;;;;;;1.03;1.00;;;;;;;;;;6413666;27;20288;-67
2024/01/03 03:03:44;;;;;;;1.10;1.10;;;;;;;;;;6413794;27;20293;-67
2024/01/03 03:06:49;;;;;;;1.03;1.03;;;;;;;;;;6413349;27;20299;-67
2024/01/03 03:09:54;;;;;;;1.10;1.10;;;;;;;;;;6409214;27;20287;-67
2024/01/03 03:12:58;;;;;;;1.40;1.30;;;;;;;;;;6387895;27;20307;-67
2024/01/03 03:16:02;;;;;;;1.27;1.17;;;;;;;;;;6387315;27;20306;-67
2024/01/03 03:19:06;;;;;;;1.23;1.20;;;;;;;;;;6384451;27;20491;-67
2024/01/03 03:22:10;;;;;;;1.30;1.20;;;;;;;;;;6382492;27;20307;-67
2024/01/03 03:25:15;;;;;;;2.63;1.20;;;;;;;;;;6384719;27;20468;-67
2024/01/03 03:28:19;;;;;;;1.60;1.20;;;;;;;;;;6380370;27;20290;-67
2024/01/03 03:31:23;;;;;;;1.23;1.13;;;;;;;;;;6386736;27;20304;-67
2024/01/03 03:34:27;;;;;;;1.33;1.10;;;;;;;;;;6387127;27;20295;-67
2024/01/03 03:37:31;;;;;;;1.20;1.20;;;;;;;;;;6387667;27;20525;-67
2024/01/03 03:40:36;;;;;;;2.40;1.17;;;;;;;;;;6386450;27;20299;-67
2024/01/03 03:43:41;;;;;;;1.00;1.00;;;;;;;;;;6368418;27;20318;-67
2024/01/03 03:46:45;;;;;;;3.30;1.20;;;;;;;;;;6386806;27;20310;-67
2024/01/03 03:49:48;;;;;;;0.90;0.90;;;;;;;;;;6385894;27;20299;-67
2024/01/03 03:52:53;;;;;;;1.30;1.20;;;;;;;;;;6386364;27;20298;-67
2024/01/03 03:55:59;;;;;;;1.10;1.10;;;;;;;;;;6367847;27;20307;-67
2024/01/03 03:59:07;;;;;;;1.10;1.10;;;;;;;;;;6385878;27;20579;-67
2024/01/03 04:02:11;;;;;;;1.27;1.17;;;;;;;;;;6372115;27;20295;-68
2024/01/03 04:05:14;;;;;;;1.17;1.17;;;;;;;;;;6380131;27;20295;-67
2024/01/03 04:08:18;;;;;;;2.10;1.30;;;;;;;;;;6382423;27;20299;-67
2024/01/03 04:11:24;;;;;;;1.40;1.40;;;;;;;;;;6386301;27;22209;-67
2024/01/03 04:14:28;;;;;;;1.23;1.23;;;;;;;;;;6385639;27;20283;-67
2024/01/03 04:17:32;;;;;;;1.50;1.03;;;;;;;;;;6385989;27;20442;-67
2024/01/03 04:20:36;;;;;;;1.50;1.17;;;;;;;;;;6380523;27;20290;-67
2024/01/03 04:23:40;;;;;;;1.60;1.10;;;;;;;;;;6385090;27;20282;-67
2024/01/03 04:26:45;;;;;;;1.10;1.10;;;;;;;;;;6384576;27;20286;-68
2024/01/03 04:29:49;;;;;;;2.70;1.00;;;;;;;;;;6378255;27;20364;-68
2024/01/03 04:32:53;;;;;;;4.80;1.23;;;;;;;;;;6385985;27;20306;-69
2024/01/03 04:35:57;;;;;;;1.63;1.10;;;;;;;;;;6379258;27;20288;-66
2024/01/03 04:39:01;;;;;;;1.10;1.10;;;;;;;;;;6359886;28;20287;-68
2024/01/03 04:42:07;;;;;;;1.30;1.30;;;;;;;;;;6360047;28;20295;-67
2024/01/03 04:45:11;;;;;;;1.17;1.07;;;;;;;;;;6359450;28;20659;-67
2024/01/03 04:48:15;;;;;;;1.20;1.10;;;;;;;;;;6359189;28;20589;-67
2024/01/03 04:51:19;;;;;;;1.30;1.30;;;;;;;;;;6359588;28;20609;-67
2024/01/03 04:54:24;;;;;;;1.70;1.20;;;;;;;;;;6359757;28;20296;-67
2024/01/03 04:57:29;;;;;;;1.13;1.13;;;;;;;;;;6359771;28;20299;-67
2024/01/03 05:00:36;;;;;;;1.07;1.07;;;;;;;;;;6359234;28;20291;-67
2024/01/03 05:03:41;;;;;;;1.23;1.20;;;;;;;;;;6359125;28;20295;-67
2024/01/03 05:06:45;;;;;;;1.23;1.23;;;;;;;;;;6359909;28;20311;-67
2024/01/03 05:09:49;;;;;;;1.20;1.20;;;;;;;;;;6359419;28;20291;-68
2024/01/03 05:12:54;;;;;;;6.33;1.40;;;;;;;;;;6385146;27;20303;-68
2024/01/03 05:15:58;;;;;;;1.20;1.20;;;;;;;;;;6384167;27;20295;-68
2024/01/03 05:19:02;;;;;;;1.20;1.20;;;;;;;;;;6384584;27;20288;-68
2024/01/03 05:22:07;;;;;;;1.40;1.40;;;;;;;;;;6385165;27;20306;-68
2024/01/03 05:25:11;;;;;;;1.30;1.30;;;;;;;;;;6383966;27;20298;-67
2024/01/03 05:28:16;;;;;;;1.70;1.23;;;;;;;;;;6376761;28;20592;-67
2024/01/03 05:31:20;;;;;;;1.30;1.20;;;;;;;;;;6384802;28;20313;-68
2024/01/03 05:34:23;;;;;;;1.27;1.27;;;;;;;;;;6369481;28;20297;-68
2024/01/03 05:37:27;;;;;;;1.13;1.13;;;;;;;;;;6333938;28;20296;-68
2024/01/03 05:40:31;;;;;;;1.30;1.30;;;;;;;;;;6333487;28;20289;-68
2024/01/03 05:43:37;;;;;;;1.30;1.30;;;;;;;;;;6333450;28;20387;-68
2024/01/03 05:46:42;;;;;;;1.43;1.40;;;;;;;;;;6333979;28;20302;-68
2024/01/03 05:49:46;;;;;;;1.07;1.07;;;;;;;;;;6333665;28;20303;-67
2024/01/03 05:52:49;;;;;;;1.50;1.50;;;;;;;;;;6334036;28;20450;-67
2024/01/03 05:55:54;;;;;;;1.47;1.37;;;;;;;;;;6333665;28;20297;-69
2024/01/03 05:58:59;;;;;;;1.23;1.23;;;;;;;;;;6333238;28;20309;-69
2024/01/03 06:02:03;;;;;;;3.03;1.47;;;;;;;;;;6332954;28;20309;-69
2024/01/03 06:05:08;;;;;;;1.40;1.33;;;;;;;;;;6333335;28;20305;-67
2024/01/03 06:08:12;;;;;;;1.20;1.20;;;;;;;;;;6333425;28;20237;-68
2024/01/03 06:11:16;;;;;;;1.37;1.37;;;;;;;;;;6362926;28;20256;-67
2024/01/03 06:14:22;;;;;;;4.57;1.20;;;;;;;;;;6384904;27;20304;-67
2024/01/03 06:17:26;;;;;;;1.37;1.37;;;;;;;;;;6389086;27;20517;-67
2024/01/03 06:20:30;;;;;;;1.40;1.33;;;;;;;;;;6388824;27;20315;-69
2024/01/03 06:23:37;;;;;;;2.10;1.20;;;;;;;;;;6388515;27;20460;-67
2024/01/03 06:26:41;;;;;;;1.10;1.10;;;;;;;;;;6389292;27;20299;-67
2024/01/03 06:29:46;;;;;;;2.57;1.40;;;;;;;;;;6381231;27;20287;-67
2024/01/03 06:32:51;;;;;;;2.20;1.30;;;;;;;;;;6388821;27;20299;-67
2024/01/03 06:35:55;;;;;;;1.70;1.20;;;;;;;;;;6387950;27;20310;-67
2024/01/03 06:38:59;;;;;;;1.40;1.30;;;;;;;;;;6388274;27;20448;-68
2024/01/03 06:42:04;;;;;;;1.80;1.20;;;;;;;;;;6388653;27;20341;-68
2024/01/03 06:45:10;;;;;;;1.53;1.37;;;;;;;;;;6387996;27;20296;-68
2024/01/03 06:48:14;;;;;;;2.03;1.60;;;;;;;;;;6369060;27;20296;-67
2024/01/03 06:51:21;;;;;;;1.30;1.30;;;;;;;;;;6388801;27;20296;-67
2024/01/03 06:54:25;;;;;;;1.40;1.30;;;;;;;;;;6388239;27;20301;-67
2024/01/03 06:57:29;;;;;;;1.60;1.50;;;;;;;;;;6388381;27;20596;-68
2024/01/03 07:00:34;;;;;;;1.20;1.20;;;;;;;;;;6387590;27;20315;-68
2024/01/03 07:03:38;;;;;;;1.40;1.40;;;;;;;;;;6388265;27;20287;-69
2024/01/03 07:10:10;;;;;;;1.17;1.17;;;;;;;;;;6380605;27;20295;-68
2024/01/03 07:13:14;;;;;;;1.40;1.40;;;;;;;;;;6361534;28;20295;-67
2024/01/03 07:16:19;;;;;;;1.63;1.10;;;;;;;;;;6362807;28;20374;-68
2024/01/03 07:19:23;;;;;;;1.20;1.20;;;;;;;;;;6361787;28;20304;-68
2024/01/03 07:22:31;;;;;;;1.40;1.40;;;;;;;;;;6385839;27;20294;-68
2024/01/03 07:25:35;;;;;;;1.53;1.33;;;;;;;;;;6386720;27;20452;-68
2024/01/03 07:28:39;;;;;;;1.30;1.30;;;;;;;;;;6385656;27;20306;-68
2024/01/03 07:31:44;;;;;;;2.00;1.30;;;;;;;;;;6387687;27;20478;-68
2024/01/03 07:34:48;;;;;;;1.40;1.40;;;;;;;;;;6386653;27;20399;-68
2024/01/03 07:37:52;;;;;;;1.27;1.20;;;;;;;;;;6387315;27;20363;-67
2024/01/03 07:40:55;;;;;;;1.67;1.60;;;;;;;;;;6386794;27;20298;-68
2024/01/03 07:43:59;;;;;;;2.03;1.27;;;;;;;;;;6386548;27;20315;-68
2024/01/03 07:47:05;;;;;;;1.33;1.33;;;;;;;;;;6386572;27;20299;-69
2024/01/03 07:50:11;;;;;;;1.50;1.43;;;;;;;;;;6386995;27;20381;-67
2024/01/03 07:53:15;;;;;;;1.57;1.57;;;;;;;;;;6386341;27;20547;-69
2024/01/03 07:56:19;;;;;;;3.33;1.50;;;;;;;;;;6387367;27;20243;-68
2024/01/03 07:59:24;;;;;;;4.13;1.70;;;;;;;;;;6385872;27;20314;-67
2024/01/03 08:02:29;;;;;;;3.73;1.57;;;;;;;;;;6386653;27;20290;-67
2024/01/03 08:05:33;;;;;;;3.60;1.33;;;;;;;;;;6386329;27;20309;-67
2024/01/03 08:08:37;;;;;;;1.50;1.50;;;;;;;;;;6386578;27;20290;-69
2024/01/03 08:11:41;;;;;;;1.30;1.30;;;;;;;;;;6386702;27;20295;-67
2024/01/03 08:14:45;;;;;;;1.87;1.40;;;;;;;;;;6386044;27;20295;-68
2024/01/03 08:18:09;;;;;;;1.70;1.60;;;;;;;;;;6386212;27;20350;-68
2024/01/03 08:21:14;;;;;;;1.57;1.50;;;;;;;;;;6385439;27;20307;-68
2024/01/03 08:24:19;;;;;;;6.93;1.80;;;;;;;;;;6385979;27;20294;-68
2024/01/03 08:27:23;;;;;;;1.30;1.30;;;;;;;;;;6386161;27;20343;-67
2024/01/03 08:30:27;;;;;;;2.43;1.37;;;;;;;;;;6385820;27;20299;-67
2024/01/03 08:33:34;;;;;;;1.63;1.63;;;;;;;;;;6385342;27;20289;-68
2024/01/03 08:36:40;;;;;;;1.60;1.60;;;;;;;;;;6385693;27;20589;-68
2024/01/03 08:39:44;;;;;;;2.67;1.40;;;;;;;;;;6385351;27;20411;-68
2024/01/03 08:42:48;;;;;;;2.00;1.90;;;;;;;;;;6386348;27;20294;-68
2024/01/03 08:45:51;;;;;;;1.90;1.57;;;;;;;;;;6385828;27;20298;-69
2024/01/03 08:48:57;;;;;;;1.63;1.60;;;;;;;;;;6385409;27;20293;-68
2024/01/03 08:52:01;;;;;;;1.87;1.80;;;;;;;;;;6385600;27;20291;-69
2024/01/03 08:55:06;;;;;;;1.57;1.47;;;;;;;;;;6385081;27;20608;-69
2024/01/03 08:58:09;;;;;;;1.53;1.53;;;;;;;;;;6385448;27;20296;-68
2024/01/03 09:01:16;;;;;;;1.80;1.50;;;;;;;;;;6385303;27;20298;-68
2024/01/03 09:04:22;;;;;;;2.87;1.40;;;;;;;;;;6384880;27;20295;-68
2024/01/03 09:07:26;;;;;;;1.43;1.43;;;;;;;;;;6401133;27;20294;-68
2024/01/03 09:10:30;;;;;;;2.37;1.50;;;;;;;;;;6384505;27;20294;-68
2024/01/03 09:13:37;;;;;;;1.37;1.37;;;;;;;;;;6384346;27;20283;-69
2024/01/03 09:16:41;;;;;;;1.40;1.40;;;;;;;;;;6366731;27;20287;-68
2024/01/03 09:19:47;;;;;;;1.70;1.60;;;;;;;;;;6367150;27;20296;-68
2024/01/03 09:22:52;;;;;;;1.63;1.43;;;;;;;;;;6384947;27;20298;-68
2024/01/03 09:25:56;;;;;;;1.70;1.60;;;;;;;;;;6384492;27;20288;-67
2024/01/03 09:29:00;;;;;;;1.70;1.60;;;;;;;;;;6377222;28;20539;-68
2024/01/03 09:32:06;;;;;;;1.60;1.60;;;;;;;;;;6384615;28;20263;-70
2024/01/03 09:35:12;;;;;;;1.63;1.50;;;;;;;;;;6365458;28;20449;-67
2024/01/03 09:38:16;;;;;;;2.97;1.80;;;;;;;;;;6384107;28;20302;-67
2024/01/03 09:41:20;;;;;;;1.67;1.57;;;;;;;;;;6384671;28;20244;-67
2024/01/03 09:44:26;;;;;;;1.40;1.40;;;;;;;;;;6384360;28;20299;-66
2024/01/03 09:47:29;;;;;;;3.20;1.63;;;;;;;;;;6385284;28;20291;-66
2024/01/03 09:50:35;;;;;;;1.50;1.50;;;;;;;;;;6389595;27;20295;-66
2024/01/03 09:53:41;;;;;;;1.93;1.70;;;;;;;;;;6389428;27;20287;-67
2024/01/03 09:56:45;;;;;;;1.60;1.50;;;;;;;;;;6389615;27;20291;-65
2024/01/03 09:59:49;;;;;;;2.13;1.80;;;;;;;;;;6389567;27;20290;-65
2024/01/03 10:02:53;;;;;;;1.50;1.50;;;;;;;;;;6389929;27;20469;-66
2024/01/03 10:06:12;;;;;;;1.40;1.30;;;;;;;;;;6389553;27;20295;-66
2024/01/03 10:09:23;;;;;;;1.50;1.40;;;;;;;;;;6388877;27;20593;-65
2024/01/03 10:12:32;;;;;;;1.53;1.53;;;;;;;;;;6387408;27;20291;-66
2024/01/03 10:15:36;;;;;;;2.80;1.47;;;;;;;;;;6388953;27;20295;-66
2024/01/03 10:18:40;;;;;;;2.93;1.60;;;;;;;;;;6388736;27;20285;-65
2024/01/03 10:21:50;;;;;;;1.53;1.50;;;;;;;;;;6389439;27;20292;-65
2024/01/03 10:24:55;;;;;;;1.70;1.60;;;;;;;;;;6389093;27;20416;-67
2024/01/03 10:28:02;;;;;;;3.33;1.60;;;;;;;;;;6382087;27;20289;-67
2024/01/03 10:31:07;;;;;;;1.43;1.43;;;;;;;;;;6388931;27;20486;-67
2024/01/03 10:34:15;;;;;;;1.60;1.50;;;;;;;;;;6369540;27;20295;-67
2024/01/03 10:37:22;;;;;;;1.37;1.33;;;;;;;;;;6389216;27;20301;-67
2024/01/03 10:40:28;;;;;;;1.30;1.30;;;;;;;;;;6388075;27;20293;-67
2024/01/03 10:43:32;;;;;;;1.47;1.40;;;;;;;;;;6388043;27;20333;-69
2024/01/03 10:46:37;;;;;;;1.40;1.40;;;;;;;;;;6389271;27;20286;-69
2024/01/03 10:49:40;;;;;;;1.37;1.37;;;;;;;;;;6388711;27;20298;-68
2024/01/03 10:52:47;;;;;;;1.10;1.10;;;;;;;;;;6389053;27;20287;-67
2024/01/03 10:55:56;;;;;;;1.33;1.33;;;;;;;;;;6388330;27;20295;-68
2024/01/03 10:59:00;;;;;;;1.20;1.20;;;;;;;;;;6369226;27;20426;-70
2024/01/03 11:02:08;;;;;;;1.53;1.40;;;;;;;;;;6386964;27;20277;-68
2024/01/03 11:05:15;;;;;;;1.37;1.27;;;;;;;;;;6387825;27;20300;-68
2024/01/03 11:08:21;;;;;;;1.40;1.40;;;;;;;;;;6387701;27;20504;-69
2024/01/03 11:11:33;;;;;;;1.53;1.53;;;;;;;;;;6371246;27;20290;-68
2024/01/03 11:14:37;;;;;;;1.20;1.20;;;;;;;;;;6362735;28;20288;-70
2024/01/03 11:17:41;;;;;;;2.30;1.43;;;;;;;;;;6344406;28;20284;-68
2024/01/03 11:20:45;;;;;;;1.27;1.27;;;;;;;;;;6362599;27;20358;-68
2024/01/03 11:23:51;;;;;;;4.10;1.43;;;;;;;;;;6387771;27;20496;-68
2024/01/03 11:27:04;;;;;;;1.67;1.37;;;;;;;;;;6387860;27;20295;-68
2024/01/03 11:30:41;;;;;;;1.40;1.40;;;;;;;;;;6387554;27;20295;-67
2024/01/03 11:33:46;;;;;;;2.67;1.43;;;;;;;;;;6387273;27;20288;-67
2024/01/03 11:36:50;;;;;;;2.23;1.47;;;;;;;;;;6386126;27;20302;-69
2024/01/03 11:39:56;;;;;;;1.30;1.30;;;;;;;;;;6386876;27;20291;-67
2024/01/03 11:43:00;;;;;;;1.57;1.47;;;;;;;;;;6386942;27;20593;-68
2024/01/03 11:46:09;;;;;;;1.80;1.40;;;;;;;;;;6387734;27;20311;-68
2024/01/03 11:49:13;;;;;;;1.60;1.47;;;;;;;;;;6386673;27;20291;-69
2024/01/03 11:52:18;;;;;;;1.50;1.43;;;;;;;;;;6387229;27;20295;-69
2024/01/03 11:55:24;;;;;;;2.33;1.33;;;;;;;;;;6386922;27;20295;-70
2024/01/03 11:58:29;;;;;;;1.50;1.50;;;;;;;;;;6386806;27;20290;-67
2024/01/03 12:01:34;;;;;;;2.20;1.47;;;;;;;;;;6386523;27;20289;-68
2024/01/03 12:04:41;;;;;;;1.50;1.40;;;;;;;;;;6386547;27;20306;-67
2024/01/03 12:07:45;;;;;;;4.13;2.03;;;;;;;;;;6386700;27;20534;-68
2024/01/03 12:10:55;;;;;;;1.40;1.40;;;;;;;;;;6385930;27;20319;-69
2024/01/03 12:13:59;;;;;;;1.80;1.70;;;;;;;;;;6385245;27;20291;-66
2024/01/03 12:17:03;;;;;;;3.33;1.80;;;;;;;;;;6385549;27;20313;-67
2024/01/03 12:20:09;;;;;;;1.40;1.30;;;;;;;;;;6386054;27;20325;-68
2024/01/03 12:23:14;;;;;;;1.50;1.50;;;;;;;;;;6385977;27;20264;-70
2024/01/03 12:26:21;;;;;;;1.63;1.53;;;;;;;;;;6386161;27;20236;-68
2024/01/03 12:29:25;;;;;;;1.80;1.70;;;;;;;;;;6385717;27;20290;-67
2024/01/03 12:32:31;;;;;;;3.50;1.50;;;;;;;;;;6386452;27;20293;-67
2024/01/03 12:35:36;;;;;;;1.40;1.40;;;;;;;;;;6384051;27;20295;-68
2024/01/03 12:38:40;;;;;;;1.77;1.67;;;;;;;;;;6385701;27;20462;-68
2024/01/03 12:41:45;;;;;;;1.27;1.27;;;;;;;;;;6382100;27;20473;-68
2024/01/03 12:44:50;;;;;;;1.50;1.50;;;;;;;;;;6359799;28;20296;-68
2024/01/03 12:47:55;;;;;;;1.37;1.37;;;;;;;;;;6360465;28;20298;-69
2024/01/03 12:50:59;;;;;;;1.80;1.80;;;;;;;;;;6359794;28;20287;-69
2024/01/03 12:54:03;;;;;;;1.50;1.50;;;;;;;;;;6359461;28;20287;-70
2024/01/03 12:57:08;;;;;;;1.50;1.50;;;;;;;;;;6360203;28;20300;-69
2024/01/03 13:00:14;;;;;;;1.67;1.60;;;;;;;;;;6360005;28;20300;-69
2024/01/03 13:03:18;;;;;;;1.67;1.57;;;;;;;;;;6359547;28;20422;-68
2024/01/03 13:06:22;;;;;;;2.27;1.60;;;;;;;;;;6359988;28;20287;-68
2024/01/03 13:09:26;;;;;;;3.00;1.60;;;;;;;;;;6359474;28;20296;-69
2024/01/03 13:12:32;;;;;;;1.50;1.50;;;;;;;;;;6359726;28;20292;-69
2024/01/03 13:15:36;;;;;;;1.30;1.30;;;;;;;;;;6359768;28;20284;-69
2024/01/03 13:18:41;;;;;;;1.60;1.40;;;;;;;;;;6359517;28;20291;-68
2024/01/03 13:21:45;;;;;;;1.43;1.43;;;;;;;;;;6357647;28;20309;-68
2024/01/03 13:24:49;;;;;;;1.33;1.33;;;;;;;;;;6359113;28;20283;-68
2024/01/03 13:27:55;;;;;;;1.43;1.43;;;;;;;;;;6367945;28;20288;-68
2024/01/03 13:30:59;;;;;;;2.77;1.40;;;;;;;;;;6384733;28;20291;-69
2024/01/03 13:34:03;;;;;;;1.13;1.13;;;;;;;;;;6366066;28;20293;-69
2024/01/03 13:37:07;;;;;;;4.10;1.80;;;;;;;;;;6385595;28;20295;-69
2024/01/03 13:40:12;;;;;;;1.67;1.57;;;;;;;;;;6385163;27;20314;-69
2024/01/03 13:43:18;;;;;;;1.50;1.50;;;;;;;;;;6384856;27;20303;-67
2024/01/03 13:46:25;;;;;;;1.20;1.20;;;;;;;;;;6385274;28;20304;-67
2024/01/03 13:49:29;;;;;;;1.30;1.23;;;;;;;;;;6384668;27;20294;-67
2024/01/03 13:52:34;;;;;;;1.50;1.40;;;;;;;;;;6385053;28;20336;-67
2024/01/03 13:55:38;;;;;;;1.30;1.30;;;;;;;;;;6384135;28;20300;-68
2024/01/03 13:58:46;;;;;;;1.43;1.43;;;;;;;;;;6384815;27;20583;-68
2024/01/03 14:01:51;;;;;;;1.53;1.53;;;;;;;;;;6385518;28;20302;-68
2024/01/03 14:04:55;;;;;;;1.30;1.20;;;;;;;;;;6384705;28;20302;-68
2024/01/03 14:08:01;;;;;;;1.50;1.50;;;;;;;;;;6383989;28;20291;-69
2024/01/03 14:11:07;;;;;;;1.47;1.47;;;;;;;;;;6365196;28;20277;-69
2024/01/03 14:14:12;;;;;;;1.20;1.20;;;;;;;;;;6368831;28;20292;-68
2024/01/03 14:17:16;;;;;;;1.47;1.47;;;;;;;;;;6384415;28;20259;-68
2024/01/03 14:20:20;;;;;;;1.30;1.30;;;;;;;;;;6384174;28;20572;-67
2024/01/03 14:23:25;;;;;;;1.50;1.40;;;;;;;;;;6383972;28;20603;-68
2024/01/03 14:26:28;;;;;;;1.40;1.40;;;;;;;;;;6365913;28;20551;-67
2024/01/03 14:29:34;;;;;;;1.33;1.33;;;;;;;;;;6383763;28;20295;-68
2024/01/03 14:32:38;;;;;;;1.80;1.23;;;;;;;;;;6384337;28;20292;-67
2024/01/03 14:35:42;;;;;;;2.13;1.30;;;;;;;;;;6366290;27;20480;-67
2024/01/03 14:38:46;;;;;;;1.50;1.40;;;;;;;;;;6388566;27;20303;-68
2024/01/03 14:41:51;;;;;;;1.17;1.10;;;;;;;;;;6389098;27;20591;-68
2024/01/03 14:44:57;;;;;;;1.63;1.40;;;;;;;;;;6388587;27;20297;-67
2024/01/03 14:48:01;;;;;;;1.70;1.60;;;;;;;;;;6387903;27;20489;-66
2024/01/03 14:51:06;;;;;;;2.07;1.30;;;;;;;;;;6388856;27;20291;-70
2024/01/03 14:54:10;;;;;;;3.07;1.40;;;;;;;;;;6388817;27;20307;-67
2024/01/03 14:57:15;;;;;;;2.23;1.50;;;;;;;;;;6389268;27;20288;-67
2024/01/03 15:00:23;;;;;;;3.70;1.40;;;;;;;;;;6369437;27;20296;-68
2024/01/03 15:03:28;;;;;;;1.30;1.30;;;;;;;;;;6369103;27;20280;-68
2024/01/03 15:06:32;;;;;;;2.27;1.47;;;;;;;;;;6388685;27;20279;-68
2024/01/03 15:09:38;;;;;;;1.60;1.40;;;;;;;;;;6370205;27;20304;-68
2024/01/03 15:12:42;;;;;;;1.23;1.23;;;;;;;;;;6388532;27;20302;-68
2024/01/03 15:15:48;;;;;;;1.27;1.27;;;;;;;;;;6388394;27;20460;-68
2024/01/03 15:18:53;;;;;;;1.53;1.33;;;;;;;;;;6388050;27;20299;-68
2024/01/03 15:22:02;;;;;;;1.33;1.23;;;;;;;;;;6388823;27;20291;-68
2024/01/03 15:25:07;;;;;;;1.27;1.23;;;;;;;;;;6387918;27;20303;-68
2024/01/03 15:28:11;;;;;;;1.60;1.30;;;;;;;;;;6388200;27;20284;-68
2024/01/03 15:31:18;;;;;;;1.13;1.10;;;;;;;;;;6370370;27;20299;-68
2024/01/03 15:34:22;;;;;;;1.87;1.23;;;;;;;;;;6367700;27;20599;-68
2024/01/03 15:37:27;;;;;;;1.23;1.23;;;;;;;;;;6387521;27;20443;-68
2024/01/03 15:40:32;;;;;;;2.20;1.40;;;;;;;;;;6387553;27;20314;-68
2024/01/03 15:43:36;;;;;;;1.53;1.40;;;;;;;;;;6387111;27;20283;-68
2024/01/03 15:46:42;;;;;;;1.40;1.40;;;;;;;;;;6388256;27;20293;-69
2024/01/03 15:49:46;;;;;;;1.20;1.20;;;;;;;;;;6388038;27;20294;-68
2024/01/03 15:52:51;;;;;;;1.37;1.37;;;;;;;;;;6388891;27;20294;-68
2024/01/03 15:55:55;;;;;;;1.57;1.47;;;;;;;;;;6387564;27;20294;-68
2024/01/03 15:58:59;;;;;;;1.63;1.37;;;;;;;;;;6386771;27;20457;-68
2024/01/03 16:02:09;;;;;;;3.27;1.57;;;;;;;;;;6386473;27;20268;-69
2024/01/03 16:05:15;;;;;;;2.67;1.60;;;;;;;;;;6387518;27;20292;-67
2024/01/03 16:08:19;;;;;;;1.40;1.30;;;;;;;;;;6377460;27;20327;-68
2024/01/03 16:11:24;;;;;;;1.63;1.50;;;;;;;;;;6358236;27;20358;-67
2024/01/03 16:14:28;;;;;;;3.10;1.40;;;;;;;;;;6383934;27;20295;-70
2024/01/03 16:17:34;;;;;;;1.80;1.80;;;;;;;;;;6386133;27;20283;-68
2024/01/03 16:20:38;;;;;;;1.60;1.60;;;;;;;;;;6386196;27;20488;-68
2024/01/03 16:23:48;;;;;;;1.80;1.20;;;;;;;;;;6386632;27;20289;-67
2024/01/03 16:26:55;;;;;;;1.37;1.37;;;;;;;;;;6387056;27;20286;-67
2024/01/03 16:30:00;;;;;;;1.50;1.40;;;;;;;;;;6360780;28;20300;-68
2024/01/03 16:33:06;;;;;;;1.23;1.23;;;;;;;;;;6360137;28;20292;-69
2024/01/03 16:36:11;;;;;;;1.30;1.30;;;;;;;;;;6360884;28;20305;-68
2024/01/03 16:39:14;;;;;;;2.40;1.50;;;;;;;;;;6360016;28;20364;-68
2024/01/03 16:42:19;;;;;;;3.83;1.40;;;;;;;;;;6360164;28;20296;-68
2024/01/03 16:45:23;;;;;;;1.20;1.17;;;;;;;;;;6359909;28;20304;-69
2024/01/03 16:48:31;;;;;;;1.40;1.40;;;;;;;;;;6359772;28;20288;-69
2024/01/03 16:51:35;;;;;;;1.70;1.70;;;;;;;;;;6360596;28;20295;-69
2024/01/03 16:54:39;;;;;;;1.30;1.30;;;;;;;;;;6358912;28;20363;-70
2024/01/03 16:57:43;;;;;;;2.57;1.30;;;;;;;;;;6359773;28;20293;-69
2024/01/03 17:00:50;;;;;;;1.37;1.37;;;;;;;;;;6359660;28;20576;-69
2024/01/03 17:03:55;;;;;;;1.33;1.33;;;;;;;;;;6359942;28;20283;-69
2024/01/03 17:06:59;;;;;;;1.73;1.43;;;;;;;;;;6360437;28;20293;-69
2024/01/03 17:10:03;;;;;;;1.40;1.30;;;;;;;;;;6365135;27;20287;-69
2024/01/03 17:13:09;;;;;;;2.97;1.40;;;;;;;;;;6385075;27;20292;-69
2024/01/03 17:16:14;;;;;;;1.77;1.30;;;;;;;;;;6385548;27;20291;-69
2024/01/03 17:19:19;;;;;;;1.30;1.30;;;;;;;;;;6375237;27;20323;-70
2024/01/03 17:22:23;;;;;;;1.40;1.40;;;;;;;;;;6365452;27;20299;-67
2024/01/03 17:25:27;;;;;;;1.53;1.53;;;;;;;;;;6383291;27;20291;-69
2024/01/03 17:28:31;;;;;;;1.43;1.43;;;;;;;;;;6365844;27;20304;-68
2024/01/03 17:31:35;;;;;;;1.20;1.20;;;;;;;;;;6371738;28;20299;-68
2024/01/03 17:34:42;;;;;;;1.33;1.30;;;;;;;;;;6383674;28;20300;-68
2024/01/03 17:37:47;;;;;;;1.37;1.37;;;;;;;;;;6385078;28;20289;-69
2024/01/03 17:40:51;;;;;;;1.33;1.33;;;;;;;;;;6384587;28;20311;-69
2024/01/03 17:43:56;;;;;;;1.33;1.33;;;;;;;;;;6385210;28;20312;-69
2024/01/03 17:47:00;;;;;;;1.40;1.40;;;;;;;;;;6383627;28;20297;-69
2024/01/03 17:50:06;;;;;;;2.60;1.57;;;;;;;;;;6365473;28;20314;-70
2024/01/03 17:53:10;;;;;;;1.20;1.20;;;;;;;;;;6384469;27;20237;-69
2024/01/03 17:56:22;;;;;;;1.20;1.20;;;;;;;;;;6384589;28;20234;-68
2024/01/03 17:59:27;;;;;;;1.30;1.30;;;;;;;;;;6384058;27;20293;-68
2024/01/03 18:02:31;;;;;;;1.50;1.40;;;;;;;;;;6384880;28;20287;-68
2024/01/03 18:05:38;;;;;;;1.63;1.20;;;;;;;;;;6384323;28;20298;-70
2024/01/03 18:08:42;;;;;;;1.63;1.40;;;;;;;;;;6384814;28;20466;-71
2024/01/03 18:11:46;;;;;;;1.83;1.47;;;;;;;;;;6389858;27;20291;-70
2024/01/03 18:14:53;;;;;;;1.20;1.20;;;;;;;;;;6389892;27;20291;-69
2024/01/03 18:17:57;;;;;;;1.50;1.50;;;;;;;;;;6389350;27;20288;-68
2024/01/03 18:21:05;;;;;;;1.67;1.30;;;;;;;;;;6391277;27;20299;-68
2024/01/03 18:24:10;;;;;;;1.60;1.50;;;;;;;;;;6394633;27;20491;-68
2024/01/03 18:27:15;;;;;;;1.30;1.30;;;;;;;;;;6411840;27;20304;-69
2024/01/03 18:30:19;;;;;;;1.20;1.20;;;;;;;;;;6410974;27;20295;-68
2024/01/03 18:33:23;;;;;;;1.50;1.40;;;;;;;;;;6414434;27;20288;-68